sensor_id;sensor_type;location;lat;lon;timestamp;P1;durP1;ratioP1;P2;durP2;ratioP2
28774;SDS011;15926;51.348;6.596;2023-08-06T04:02:05;7.18;;;3.70;;
28774;SDS011;15926;51.348;6.596;2023-08-06T04:04:31;3.03;;;2.83;;
28774;SDS011;15926;51.348;6.596;2023-08-06T04:06:57;3.88;;;2.65;;
28774;SDS011;15926;51.348;6.596;2023-08-06T04:09:23;4.05;;;2.97;;
28774;SDS011;15926;51.348;6.596;2023-08-06T04:11:49;5.00;;;3.42;;
28774;SDS011;15926;51.348;6.596;2023-08-06T04:14:15;10.38;;;3.13;;
28774;SDS011;15926;51.348;6.596;2023-08-06T04:16:41;5.03;;;3.40;;
28774;SDS011;15926;51.348;6.596;2023-08-06T04:19:07;8.68;;;3.65;;
28774;SDS011;15926;51.348;6.596;2023-08-06T04:21:33;4.63;;;3.92;;
28774;SDS011;15926;51.348;6.596;2023-08-06T04:23:59;4.53;;;3.70;;
28774;SDS011;15926;51.348;6.596;2023-08-06T04:26:25;6.53;;;3.80;;
28774;SDS011;15926;51.348;6.596;2023-08-06T04:28:51;4.35;;;3.47;;
28774;SDS011;15926;51.348;6.596;2023-08-06T04:31:17;4.90;;;3.35;;
28774;SDS011;15926;51.348;6.596;2023-08-06T04:33:43;7.07;;;3.25;;
28774;SDS011;15926;51.348;6.596;2023-08-06T04:36:09;4.53;;;3.92;;
28774;SDS011;15926;51.348;6.596;2023-08-06T04:38:35;4.15;;;3.22;;
28774;SDS011;15926;51.348;6.596;2023-08-06T04:41:02;3.97;;;3.40;;
28774;SDS011;15926;51.348;6.596;2023-08-06T04:43:28;6.47;;;3.60;;
28774;SDS011;15926;51.348;6.596;2023-08-06T04:45:55;5.00;;;3.90;;
28774;SDS011;15926;51.348;6.596;2023-08-06T04:48:21;6.90;;;3.35;;
28774;SDS011;15926;51.348;6.596;2023-08-06T04:50:48;4.75;;;3.53;;
28774;SDS011;15926;51.348;6.596;2023-08-06T04:53:15;5.35;;;4.15;;
28774;SDS011;15926;51.348;6.596;2023-08-06T04:55:41;4.32;;;3.40;;
28774;SDS011;15926;51.348;6.596;2023-08-06T04:58:08;3.88;;;3.50;;
28774;SDS011;15926;51.348;6.596;2023-08-06T05:00:35;7.88;;;3.58;;
28774;SDS011;15926;51.348;6.596;2023-08-06T05:03:01;5.38;;;3.60;;
28774;SDS011;15926;51.348;6.596;2023-08-06T05:05:27;6.97;;;3.20;;
28774;SDS011;15926;51.348;6.596;2023-08-06T05:07:54;3.90;;;3.55;;
28774;SDS011;15926;51.348;6.596;2023-08-06T05:10:20;4.43;;;3.60;;
28774;SDS011;15926;51.348;6.596;2023-08-06T05:12:46;3.60;;;3.28;;
28774;SDS011;15926;51.348;6.596;2023-08-06T05:15:12;4.40;;;4.00;;
28774;SDS011;15926;51.348;6.596;2023-08-06T05:17:38;5.30;;;3.72;;
28774;SDS011;15926;51.348;6.596;2023-08-06T05:20:04;5.15;;;3.90;;
28774;SDS011;15926;51.348;6.596;2023-08-06T05:22:30;3.50;;;3.30;;
28774;SDS011;15926;51.348;6.596;2023-08-06T05:24:56;8.38;;;4.15;;
28774;SDS011;15926;51.348;6.596;2023-08-06T05:27:22;4.43;;;4.03;;
28774;SDS011;15926;51.348;6.596;2023-08-06T05:29:48;14.32;;;4.03;;
28774;SDS011;15926;51.348;6.596;2023-08-06T05:32:14;4.65;;;3.10;;
28774;SDS011;15926;51.348;6.596;2023-08-06T05:34:40;4.35;;;3.17;;
28774;SDS011;15926;51.348;6.596;2023-08-06T05:37:06;4.68;;;3.30;;
28774;SDS011;15926;51.348;6.596;2023-08-06T05:39:32;5.85;;;3.00;;
28774;SDS011;15926;51.348;6.596;2023-08-06T05:41:58;3.35;;;2.97;;
28774;SDS011;15926;51.348;6.596;2023-08-06T05:44:24;3.25;;;2.95;;
28774;SDS011;15926;51.348;6.596;2023-08-06T05:46:50;3.45;;;3.15;;
28774;SDS011;15926;51.348;6.596;2023-08-06T05:49:18;3.22;;;2.80;;
28774;SDS011;15926;51.348;6.596;2023-08-06T05:51:44;2.95;;;2.50;;
28774;SDS011;15926;51.348;6.596;2023-08-06T05:54:10;2.47;;;1.60;;
28774;SDS011;15926;51.348;6.596;2023-08-06T05:56:36;2.35;;;1.75;;
28774;SDS011;15926;51.348;6.596;2023-08-06T05:59:02;2.50;;;1.75;;
28774;SDS011;15926;51.348;6.596;2023-08-06T06:01:28;1.90;;;1.50;;
28774;SDS011;15926;51.348;6.596;2023-08-06T06:03:54;4.70;;;1.80;;
28774;SDS011;15926;51.348;6.596;2023-08-06T06:06:20;2.08;;;1.10;;
28774;SDS011;15926;51.348;6.596;2023-08-06T06:08:46;4.82;;;1.40;;
28774;SDS011;15926;51.348;6.596;2023-08-06T06:11:12;1.75;;;1.65;;
28774;SDS011;15926;51.348;6.596;2023-08-06T06:13:38;3.13;;;1.70;;
28774;SDS011;15926;51.348;6.596;2023-08-06T06:16:04;2.78;;;1.45;;
28774;SDS011;15926;51.348;6.596;2023-08-06T06:18:30;1.38;;;1.27;;
28774;SDS011;15926;51.348;6.596;2023-08-06T06:20:56;1.65;;;1.38;;
28774;SDS011;15926;51.348;6.596;2023-08-06T06:23:22;2.72;;;1.00;;
28774;SDS011;15926;51.348;6.596;2023-08-06T06:25:49;2.15;;;1.27;;
28774;SDS011;15926;51.348;6.596;2023-08-06T06:28:18;2.83;;;1.60;;
28774;SDS011;15926;51.348;6.596;2023-08-06T06:30:44;3.58;;;1.85;;
28774;SDS011;15926;51.348;6.596;2023-08-06T06:33:10;1.75;;;1.38;;
28774;SDS011;15926;51.348;6.596;2023-08-06T06:35:36;1.88;;;1.77;;
28774;SDS011;15926;51.348;6.596;2023-08-06T06:38:02;2.08;;;1.90;;
28774;SDS011;15926;51.348;6.596;2023-08-06T06:40:28;3.97;;;2.38;;
28774;SDS011;15926;51.348;6.596;2023-08-06T06:42:54;2.63;;;2.00;;
28774;SDS011;15926;51.348;6.596;2023-08-06T06:45:20;1.50;;;1.40;;
28774;SDS011;15926;51.348;6.596;2023-08-06T06:47:46;2.38;;;1.83;;
28774;SDS011;15926;51.348;6.596;2023-08-06T06:50:12;4.40;;;3.33;;
28774;SDS011;15926;51.348;6.596;2023-08-06T06:52:38;5.00;;;2.08;;
28774;SDS011;15926;51.348;6.596;2023-08-06T06:55:04;2.38;;;2.25;;
28774;SDS011;15926;51.348;6.596;2023-08-06T06:57:30;2.30;;;1.90;;
28774;SDS011;15926;51.348;6.596;2023-08-06T06:59:56;1.70;;;1.60;;
28774;SDS011;15926;51.348;6.596;2023-08-06T07:02:22;2.53;;;1.48;;
28774;SDS011;15926;51.348;6.596;2023-08-06T07:04:49;2.25;;;1.55;;
28774;SDS011;15926;51.348;6.596;2023-08-06T07:07:15;1.50;;;1.40;;
28774;SDS011;15926;51.348;6.596;2023-08-06T07:09:41;1.55;;;1.00;;
28774;SDS011;15926;51.348;6.596;2023-08-06T07:12:07;1.92;;;1.73;;
28774;SDS011;15926;51.348;6.596;2023-08-06T07:14:33;5.05;;;1.40;;
28774;SDS011;15926;51.348;6.596;2023-08-06T07:16:59;3.72;;;1.88;;
28774;SDS011;15926;51.348;6.596;2023-08-06T07:19:25;4.00;;;2.65;;
28774;SDS011;15926;51.348;6.596;2023-08-06T07:21:51;2.20;;;2.10;;
28774;SDS011;15926;51.348;6.596;2023-08-06T07:24:17;2.05;;;1.95;;
28774;SDS011;15926;51.348;6.596;2023-08-06T07:26:43;1.90;;;1.80;;
28774;SDS011;15926;51.348;6.596;2023-08-06T07:29:09;3.33;;;1.92;;
28774;SDS011;15926;51.348;6.596;2023-08-06T07:31:35;2.38;;;1.88;;
28774;SDS011;15926;51.348;6.596;2023-08-06T07:34:01;2.00;;;1.77;;
28774;SDS011;15926;51.348;6.596;2023-08-06T07:36:27;2.15;;;1.85;;
28774;SDS011;15926;51.348;6.596;2023-08-06T07:38:53;2.08;;;1.70;;
28774;SDS011;15926;51.348;6.596;2023-08-06T07:41:24;2.22;;;1.98;;
28774;SDS011;15926;51.348;6.596;2023-08-06T07:43:50;1.73;;;1.63;;
28774;SDS011;15926;51.348;6.596;2023-08-06T07:46:16;4.50;;;2.08;;
28774;SDS011;15926;51.348;6.596;2023-08-06T07:48:42;3.35;;;1.92;;
28774;SDS011;15926;51.348;6.596;2023-08-06T07:51:08;2.85;;;2.10;;
28774;SDS011;15926;51.348;6.596;2023-08-06T07:53:35;1.85;;;1.75;;
28774;SDS011;15926;51.348;6.596;2023-08-06T07:56:01;2.90;;;2.03;;
28774;SDS011;15926;51.348;6.596;2023-08-06T07:58:27;1.70;;;1.60;;
28774;SDS011;15926;51.348;6.596;2023-08-06T08:00:54;1.58;;;1.40;;
28774;SDS011;15926;51.348;6.596;2023-08-06T08:03:20;1.75;;;1.40;;
28774;SDS011;15926;51.348;6.596;2023-08-06T08:05:46;4.57;;;1.10;;
28774;SDS011;15926;51.348;6.596;2023-08-06T08:08:12;2.95;;;1.40;;
28774;SDS011;15926;51.348;6.596;2023-08-06T08:10:38;2.20;;;1.48;;
28774;SDS011;15926;51.348;6.596;2023-08-06T08:13:04;1.40;;;1.30;;
28774;SDS011;15926;51.348;6.596;2023-08-06T08:15:31;4.07;;;1.52;;
28774;SDS011;15926;51.348;6.596;2023-08-06T08:17:57;3.00;;;1.80;;
28774;SDS011;15926;51.348;6.596;2023-08-06T08:20:23;1.73;;;1.63;;
28774;SDS011;15926;51.348;6.596;2023-08-06T08:22:49;2.90;;;1.90;;
28774;SDS011;15926;51.348;6.596;2023-08-06T08:25:16;1.90;;;1.77;;
28774;SDS011;15926;51.348;6.596;2023-08-06T08:27:42;2.20;;;1.70;;
28774;SDS011;15926;51.348;6.596;2023-08-06T08:30:08;2.70;;;1.77;;
28774;SDS011;15926;51.348;6.596;2023-08-06T08:32:34;3.42;;;1.88;;
28774;SDS011;15926;51.348;6.596;2023-08-06T08:35:00;3.80;;;1.77;;
28774;SDS011;15926;51.348;6.596;2023-08-06T08:37:26;3.50;;;1.90;;
28774;SDS011;15926;51.348;6.596;2023-08-06T08:39:52;4.07;;;2.08;;
28774;SDS011;15926;51.348;6.596;2023-08-06T08:42:18;3.85;;;1.73;;
28774;SDS011;15926;51.348;6.596;2023-08-06T08:44:44;2.70;;;1.83;;
28774;SDS011;15926;51.348;6.596;2023-08-06T08:47:10;1.67;;;1.48;;
28774;SDS011;15926;51.348;6.596;2023-08-06T08:49:36;1.63;;;1.50;;
28774;SDS011;15926;51.348;6.596;2023-08-06T08:52:03;3.95;;;2.05;;
28774;SDS011;15926;51.348;6.596;2023-08-06T08:54:35;2.05;;;1.30;;
28774;SDS011;15926;51.348;6.596;2023-08-06T08:57:03;3.28;;;1.20;;
28774;SDS011;15926;51.348;6.596;2023-08-06T08:59:29;2.80;;;1.20;;
28774;SDS011;15926;51.348;6.596;2023-08-06T09:01:55;3.42;;;1.10;;
28774;SDS011;15926;51.348;6.596;2023-08-06T09:04:21;2.60;;;0.80;;
28774;SDS011;15926;51.348;6.596;2023-08-06T09:06:50;3.83;;;1.00;;
28774;SDS011;15926;51.348;6.596;2023-08-06T09:09:17;3.13;;;0.70;;
28774;SDS011;15926;51.348;6.596;2023-08-06T09:11:46;1.58;;;0.82;;
28774;SDS011;15926;51.348;6.596;2023-08-06T09:14:14;2.45;;;1.08;;
28774;SDS011;15926;51.348;6.596;2023-08-06T09:16:40;1.55;;;0.93;;
28774;SDS011;15926;51.348;6.596;2023-08-06T09:19:07;3.33;;;0.95;;
28774;SDS011;15926;51.348;6.596;2023-08-06T09:21:33;2.88;;;1.60;;
28774;SDS011;15926;51.348;6.596;2023-08-06T09:24:03;4.18;;;1.67;;
28774;SDS011;15926;51.348;6.596;2023-08-06T09:26:33;3.22;;;2.88;;
28774;SDS011;15926;51.348;6.596;2023-08-06T09:28:59;2.72;;;2.30;;
28774;SDS011;15926;51.348;6.596;2023-08-06T09:31:32;4.47;;;1.83;;
28774;SDS011;15926;51.348;6.596;2023-08-06T09:34:01;3.08;;;1.70;;
28774;SDS011;15926;51.348;6.596;2023-08-06T09:36:28;3.38;;;1.70;;
28774;SDS011;15926;51.348;6.596;2023-08-06T09:38:54;3.83;;;2.33;;
28774;SDS011;15926;51.348;6.596;2023-08-06T09:41:26;3.17;;;1.98;;
28774;SDS011;15926;51.348;6.596;2023-08-06T09:43:53;3.20;;;2.88;;
28774;SDS011;15926;51.348;6.596;2023-08-06T09:46:19;7.00;;;3.05;;
28774;SDS011;15926;51.348;6.596;2023-08-06T09:48:47;3.33;;;1.83;;
28774;SDS011;15926;51.348;6.596;2023-08-06T09:51:14;3.78;;;2.13;;
28774;SDS011;15926;51.348;6.596;2023-08-06T09:53:40;2.22;;;1.90;;
28774;SDS011;15926;51.348;6.596;2023-08-06T09:56:07;2.67;;;1.40;;
28774;SDS011;15926;51.348;6.596;2023-08-06T09:58:34;2.42;;;1.77;;
28774;SDS011;15926;51.348;6.596;2023-08-06T10:01:01;4.00;;;2.10;;
28774;SDS011;15926;51.348;6.596;2023-08-06T10:03:27;2.05;;;1.90;;
28774;SDS011;15926;51.348;6.596;2023-08-06T10:05:55;2.38;;;1.45;;
28774;SDS011;15926;51.348;6.596;2023-08-06T10:08:22;1.48;;;1.15;;
28774;SDS011;15926;51.348;6.596;2023-08-06T10:10:48;1.95;;;0.90;;
28774;SDS011;15926;51.348;6.596;2023-08-06T10:13:14;2.70;;;1.25;;
28774;SDS011;15926;51.348;6.596;2023-08-06T10:15:41;1.88;;;1.10;;
28774;SDS011;15926;51.348;6.596;2023-08-06T10:18:07;1.25;;;0.80;;
28774;SDS011;15926;51.348;6.596;2023-08-06T10:20:34;1.00;;;0.90;;
28774;SDS011;15926;51.348;6.596;2023-08-06T10:23:04;0.65;;;0.65;;
28774;SDS011;15926;51.348;6.596;2023-08-06T10:25:31;1.33;;;0.80;;
28774;SDS011;15926;51.348;6.596;2023-08-06T10:27:58;2.22;;;0.77;;
28774;SDS011;15926;51.348;6.596;2023-08-06T10:30:25;1.05;;;0.60;;
28774;SDS011;15926;51.348;6.596;2023-08-06T10:33:01;0.93;;;0.50;;
28774;SDS011;15926;51.348;6.596;2023-08-06T10:37:57;0.60;;;0.60;;
28774;SDS011;15926;51.348;6.596;2023-08-06T10:40:23;0.77;;;0.60;;
28774;SDS011;15926;51.348;6.596;2023-08-06T10:42:51;1.60;;;0.60;;
28774;SDS011;15926;51.348;6.596;2023-08-06T10:45:18;1.00;;;0.70;;
28774;SDS011;15926;51.348;6.596;2023-08-06T10:47:44;0.75;;;0.75;;
28774;SDS011;15926;51.348;6.596;2023-08-06T10:50:19;2.05;;;1.05;;
28774;SDS011;15926;51.348;6.596;2023-08-06T10:52:48;1.17;;;0.95;;
28774;SDS011;15926;51.348;6.596;2023-08-06T10:55:22;1.40;;;1.20;;
28774;SDS011;15926;51.348;6.596;2023-08-06T10:57:48;1.13;;;1.13;;
28774;SDS011;15926;51.348;6.596;2023-08-06T11:00:14;1.40;;;1.23;;
28774;SDS011;15926;51.348;6.596;2023-08-06T11:02:40;1.75;;;1.13;;
28774;SDS011;15926;51.348;6.596;2023-08-06T11:05:06;1.65;;;1.50;;
28774;SDS011;15926;51.348;6.596;2023-08-06T11:07:33;2.20;;;1.38;;
28774;SDS011;15926;51.348;6.596;2023-08-06T11:10:06;1.77;;;1.67;;
28774;SDS011;15926;51.348;6.596;2023-08-06T11:12:33;1.85;;;1.75;;
28774;SDS011;15926;51.348;6.596;2023-08-06T11:14:59;2.05;;;1.80;;
28774;SDS011;15926;51.348;6.596;2023-08-06T11:17:26;1.70;;;1.60;;
28774;SDS011;15926;51.348;6.596;2023-08-06T11:19:52;2.25;;;2.15;;
28774;SDS011;15926;51.348;6.596;2023-08-06T11:22:20;1.92;;;1.83;;
28774;SDS011;15926;51.348;6.596;2023-08-06T11:24:46;2.40;;;2.20;;
28774;SDS011;15926;51.348;6.596;2023-08-06T11:27:15;2.20;;;2.00;;
28774;SDS011;15926;51.348;6.596;2023-08-06T11:29:44;1.65;;;1.55;;
28774;SDS011;15926;51.348;6.596;2023-08-06T11:32:11;2.85;;;2.00;;
28774;SDS011;15926;51.348;6.596;2023-08-06T11:34:37;2.47;;;2.28;;
28774;SDS011;15926;51.348;6.596;2023-08-06T11:37:03;2.30;;;2.20;;
28774;SDS011;15926;51.348;6.596;2023-08-06T11:39:33;2.05;;;1.95;;
28774;SDS011;15926;51.348;6.596;2023-08-06T11:41:59;1.73;;;1.63;;
28774;SDS011;15926;51.348;6.596;2023-08-06T11:44:29;2.20;;;2.00;;
28774;SDS011;15926;51.348;6.596;2023-08-06T11:46:56;2.60;;;1.75;;
28774;SDS011;15926;51.348;6.596;2023-08-06T11:49:44;1.35;;;1.25;;
28774;SDS011;15926;51.348;6.596;2023-08-06T11:52:13;2.30;;;1.52;;
28774;SDS011;15926;51.348;6.596;2023-08-06T11:54:43;1.60;;;1.50;;
28774;SDS011;15926;51.348;6.596;2023-08-06T11:57:09;1.80;;;1.70;;
28774;SDS011;15926;51.348;6.596;2023-08-06T11:59:39;3.50;;;1.88;;
28774;SDS011;15926;51.348;6.596;2023-08-06T12:04:32;3.22;;;1.98;;
28774;SDS011;15926;51.348;6.596;2023-08-06T12:07:04;2.35;;;1.88;;
28774;SDS011;15926;51.348;6.596;2023-08-06T12:09:32;2.97;;;1.63;;
28774;SDS011;15926;51.348;6.596;2023-08-06T12:11:58;1.80;;;1.70;;
28774;SDS011;15926;51.348;6.596;2023-08-06T12:14:25;2.78;;;1.90;;
28774;SDS011;15926;51.348;6.596;2023-08-06T12:16:50;3.03;;;1.80;;
28774;SDS011;15926;51.348;6.596;2023-08-06T12:19:16;1.70;;;1.60;;
28774;SDS011;15926;51.348;6.596;2023-08-06T12:21:42;2.00;;;1.77;;
28774;SDS011;15926;51.348;6.596;2023-08-06T12:24:08;1.55;;;1.35;;
28774;SDS011;15926;51.348;6.596;2023-08-06T12:26:38;1.92;;;1.73;;
28774;SDS011;15926;51.348;6.596;2023-08-06T12:29:04;2.28;;;1.20;;
28774;SDS011;15926;51.348;6.596;2023-08-06T12:31:30;1.38;;;1.23;;
28774;SDS011;15926;51.348;6.596;2023-08-06T12:33:56;1.27;;;1.17;;
28774;SDS011;15926;51.348;6.596;2023-08-06T12:36:22;2.13;;;1.75;;
28774;SDS011;15926;51.348;6.596;2023-08-06T12:38:48;2.25;;;2.05;;
28774;SDS011;15926;51.348;6.596;2023-08-06T12:41:14;2.80;;;2.08;;
28774;SDS011;15926;51.348;6.596;2023-08-06T12:43:40;2.88;;;2.30;;
28774;SDS011;15926;51.348;6.596;2023-08-06T12:46:06;3.22;;;2.50;;
28774;SDS011;15926;51.348;6.596;2023-08-06T12:48:32;4.65;;;2.50;;
28774;SDS011;15926;51.348;6.596;2023-08-06T12:50:58;3.88;;;2.65;;
28774;SDS011;15926;51.348;6.596;2023-08-06T12:53:24;2.60;;;2.40;;
28774;SDS011;15926;51.348;6.596;2023-08-06T12:55:50;3.90;;;2.30;;
28774;SDS011;15926;51.348;6.596;2023-08-06T12:58:19;2.35;;;2.13;;
28774;SDS011;15926;51.348;6.596;2023-08-06T13:00:45;2.45;;;2.05;;
28774;SDS011;15926;51.348;6.596;2023-08-06T13:03:12;6.45;;;2.47;;
28774;SDS011;15926;51.348;6.596;2023-08-06T13:05:38;2.25;;;2.03;;
28774;SDS011;15926;51.348;6.596;2023-08-06T13:08:04;2.95;;;2.20;;
28774;SDS011;15926;51.348;6.596;2023-08-06T13:10:30;2.83;;;1.80;;
28774;SDS011;15926;51.348;6.596;2023-08-06T13:12:56;2.90;;;1.83;;
28774;SDS011;15926;51.348;6.596;2023-08-06T13:15:22;1.98;;;1.60;;
28774;SDS011;15926;51.348;6.596;2023-08-06T13:17:48;2.72;;;1.70;;
28774;SDS011;15926;51.348;6.596;2023-08-06T13:20:14;2.88;;;2.00;;
28774;SDS011;15926;51.348;6.596;2023-08-06T13:22:40;2.13;;;1.55;;
28774;SDS011;15926;51.348;6.596;2023-08-06T13:25:06;2.05;;;1.65;;
28774;SDS011;15926;51.348;6.596;2023-08-06T13:27:32;3.35;;;1.60;;
28774;SDS011;15926;51.348;6.596;2023-08-06T13:29:58;2.00;;;1.90;;
28774;SDS011;15926;51.348;6.596;2023-08-06T13:32:24;2.10;;;1.63;;
28774;SDS011;15926;51.348;6.596;2023-08-06T13:34:50;2.65;;;1.75;;
28774;SDS011;15926;51.348;6.596;2023-08-06T13:37:18;4.32;;;1.85;;
28774;SDS011;15926;51.348;6.596;2023-08-06T13:39:44;1.92;;;1.40;;
28774;SDS011;15926;51.348;6.596;2023-08-06T13:42:10;1.80;;;1.63;;
28774;SDS011;15926;51.348;6.596;2023-08-06T13:44:36;2.97;;;1.70;;
28774;SDS011;15926;51.348;6.596;2023-08-06T13:47:02;2.30;;;1.63;;
28774;SDS011;15926;51.348;6.596;2023-08-06T13:49:28;3.08;;;1.63;;
28774;SDS011;15926;51.348;6.596;2023-08-06T13:51:54;2.17;;;1.60;;
28774;SDS011;15926;51.348;6.596;2023-08-06T13:54:23;4.75;;;2.08;;
28774;SDS011;15926;51.348;6.596;2023-08-06T13:56:49;3.03;;;1.52;;
28774;SDS011;15926;51.348;6.596;2023-08-06T13:59:16;1.83;;;1.65;;
28774;SDS011;15926;51.348;6.596;2023-08-06T14:01:43;1.88;;;1.55;;
28774;SDS011;15926;51.348;6.596;2023-08-06T14:04:09;2.38;;;2.10;;
28774;SDS011;15926;51.348;6.596;2023-08-06T14:06:35;3.72;;;1.33;;
28774;SDS011;15926;51.348;6.596;2023-08-06T14:09:01;3.67;;;1.95;;
28774;SDS011;15926;51.348;6.596;2023-08-06T14:11:27;4.07;;;1.73;;
28774;SDS011;15926;51.348;6.596;2023-08-06T14:13:53;1.85;;;1.60;;
28774;SDS011;15926;51.348;6.596;2023-08-06T14:16:19;3.25;;;1.67;;
28774;SDS011;15926;51.348;6.596;2023-08-06T14:18:45;2.25;;;1.80;;
28774;SDS011;15926;51.348;6.596;2023-08-06T14:21:11;2.85;;;1.90;;
28774;SDS011;15926;51.348;6.596;2023-08-06T14:23:37;1.90;;;1.77;;
28774;SDS011;15926;51.348;6.596;2023-08-06T14:26:06;2.00;;;1.45;;
28774;SDS011;15926;51.348;6.596;2023-08-06T14:28:32;3.28;;;1.65;;
28774;SDS011;15926;51.348;6.596;2023-08-06T14:30:58;4.45;;;2.35;;
28774;SDS011;15926;51.348;6.596;2023-08-06T14:33:27;3.22;;;1.60;;
28774;SDS011;15926;51.348;6.596;2023-08-06T14:35:53;2.58;;;1.65;;
28774;SDS011;15926;51.348;6.596;2023-08-06T14:38:19;2.22;;;1.65;;
28774;SDS011;15926;51.348;6.596;2023-08-06T14:40:48;1.90;;;1.50;;
28774;SDS011;15926;51.348;6.596;2023-08-06T14:43:14;1.50;;;1.40;;
28774;SDS011;15926;51.348;6.596;2023-08-06T14:45:40;1.98;;;1.63;;
28774;SDS011;15926;51.348;6.596;2023-08-06T14:48:06;3.13;;;1.70;;
28774;SDS011;15926;51.348;6.596;2023-08-06T14:50:32;1.83;;;1.73;;
28774;SDS011;15926;51.348;6.596;2023-08-06T14:52:58;2.90;;;1.60;;
28774;SDS011;15926;51.348;6.596;2023-08-06T14:55:27;3.10;;;1.50;;
28774;SDS011;15926;51.348;6.596;2023-08-06T14:57:53;3.05;;;1.73;;
28774;SDS011;15926;51.348;6.596;2023-08-06T15:00:20;3.28;;;1.88;;
28774;SDS011;15926;51.348;6.596;2023-08-06T15:02:46;1.60;;;1.50;;
28774;SDS011;15926;51.348;6.596;2023-08-06T15:05:12;1.95;;;1.65;;
28774;SDS011;15926;51.348;6.596;2023-08-06T15:07:38;1.30;;;1.20;;
28774;SDS011;15926;51.348;6.596;2023-08-06T15:10:04;2.28;;;1.73;;
28774;SDS011;15926;51.348;6.596;2023-08-06T15:12:34;1.67;;;1.55;;
28774;SDS011;15926;51.348;6.596;2023-08-06T15:15:00;3.20;;;1.85;;
28774;SDS011;15926;51.348;6.596;2023-08-06T15:17:26;8.30;;;2.13;;
28774;SDS011;15926;51.348;6.596;2023-08-06T15:19:55;4.88;;;2.20;;
28774;SDS011;15926;51.348;6.596;2023-08-06T15:22:21;2.45;;;1.63;;
28774;SDS011;15926;51.348;6.596;2023-08-06T15:24:47;1.98;;;1.30;;
28774;SDS011;15926;51.348;6.596;2023-08-06T15:27:13;1.98;;;1.45;;
28774;SDS011;15926;51.348;6.596;2023-08-06T15:29:39;3.15;;;1.00;;
28774;SDS011;15926;51.348;6.596;2023-08-06T15:32:05;2.10;;;1.30;;
28774;SDS011;15926;51.348;6.596;2023-08-06T15:34:31;2.45;;;1.00;;
28774;SDS011;15926;51.348;6.596;2023-08-06T15:36:57;1.50;;;1.40;;
28774;SDS011;15926;51.348;6.596;2023-08-06T15:39:23;2.13;;;1.00;;
28774;SDS011;15926;51.348;6.596;2023-08-06T15:41:49;2.30;;;0.88;;
28774;SDS011;15926;51.348;6.596;2023-08-06T15:44:15;1.10;;;1.00;;
28774;SDS011;15926;51.348;6.596;2023-08-06T15:46:41;1.30;;;1.20;;
28774;SDS011;15926;51.348;6.596;2023-08-06T15:49:07;1.20;;;1.10;;
28774;SDS011;15926;51.348;6.596;2023-08-06T15:51:33;1.42;;;0.90;;
28774;SDS011;15926;51.348;6.596;2023-08-06T15:53:59;3.40;;;1.17;;
28774;SDS011;15926;51.348;6.596;2023-08-06T15:56:25;3.72;;;1.38;;
28774;SDS011;15926;51.348;6.596;2023-08-06T15:58:51;1.30;;;1.10;;
28774;SDS011;15926;51.348;6.596;2023-08-06T16:01:17;1.10;;;1.00;;
28774;SDS011;15926;51.348;6.596;2023-08-06T16:03:43;1.20;;;1.08;;
28774;SDS011;15926;51.348;6.596;2023-08-06T16:06:13;2.72;;;1.10;;
28774;SDS011;15926;51.348;6.596;2023-08-06T16:08:39;0.70;;;0.70;;
28774;SDS011;15926;51.348;6.596;2023-08-06T16:11:08;1.30;;;0.63;;
28774;SDS011;15926;51.348;6.596;2023-08-06T16:13:34;2.38;;;0.90;;
28774;SDS011;15926;51.348;6.596;2023-08-06T16:16:00;0.73;;;0.73;;
28774;SDS011;15926;51.348;6.596;2023-08-06T16:18:26;1.17;;;0.93;;
28774;SDS011;15926;51.348;6.596;2023-08-06T16:20:53;0.77;;;0.73;;
28774;SDS011;15926;51.348;6.596;2023-08-06T16:23:19;2.38;;;0.60;;
28774;SDS011;15926;51.348;6.596;2023-08-06T16:25:45;1.17;;;0.82;;
28774;SDS011;15926;51.348;6.596;2023-08-06T16:28:12;0.63;;;0.63;;
28774;SDS011;15926;51.348;6.596;2023-08-06T16:30:45;2.88;;;0.77;;
28774;SDS011;15926;51.348;6.596;2023-08-06T16:33:11;1.35;;;0.90;;
28774;SDS011;15926;51.348;6.596;2023-08-06T16:35:37;0.90;;;0.90;;
28774;SDS011;15926;51.348;6.596;2023-08-06T16:38:03;0.80;;;0.70;;
28774;SDS011;15926;51.348;6.596;2023-08-06T16:40:29;0.80;;;0.75;;
28774;SDS011;15926;51.348;6.596;2023-08-06T16:42:55;0.93;;;0.82;;
28774;SDS011;15926;51.348;6.596;2023-08-06T16:45:21;1.88;;;0.90;;
28774;SDS011;15926;51.348;6.596;2023-08-06T16:47:47;1.33;;;1.17;;
28774;SDS011;15926;51.348;6.596;2023-08-06T16:50:14;1.60;;;1.17;;
28774;SDS011;15926;51.348;6.596;2023-08-06T16:52:41;2.47;;;1.50;;
28774;SDS011;15926;51.348;6.596;2023-08-06T16:55:07;1.50;;;1.40;;
28774;SDS011;15926;51.348;6.596;2023-08-06T16:57:34;3.55;;;1.38;;
28774;SDS011;15926;51.348;6.596;2023-08-06T16:59:59;1.92;;;1.63;;
28774;SDS011;15926;51.348;6.596;2023-08-06T17:02:25;2.25;;;1.40;;
28774;SDS011;15926;51.348;6.596;2023-08-06T17:04:51;2.30;;;1.60;;
28774;SDS011;15926;51.348;6.596;2023-08-06T17:07:17;2.42;;;1.65;;
28774;SDS011;15926;51.348;6.596;2023-08-06T17:09:43;3.60;;;1.60;;
28774;SDS011;15926;51.348;6.596;2023-08-06T17:12:09;2.60;;;1.80;;
28774;SDS011;15926;51.348;6.596;2023-08-06T17:14:36;2.10;;;2.00;;
28774;SDS011;15926;51.348;6.596;2023-08-06T17:17:02;3.35;;;1.88;;
28774;SDS011;15926;51.348;6.596;2023-08-06T17:19:27;2.10;;;1.90;;
28774;SDS011;15926;51.348;6.596;2023-08-06T17:21:53;3.70;;;1.98;;
28774;SDS011;15926;51.348;6.596;2023-08-06T17:24:22;5.82;;;2.00;;
28774;SDS011;15926;51.348;6.596;2023-08-06T17:26:48;2.05;;;1.80;;
28774;SDS011;15926;51.348;6.596;2023-08-06T17:29:17;2.45;;;2.25;;
28774;SDS011;15926;51.348;6.596;2023-08-06T17:31:43;2.45;;;2.03;;
28774;SDS011;15926;51.348;6.596;2023-08-06T17:34:09;3.40;;;1.65;;
28774;SDS011;15926;51.348;6.596;2023-08-06T17:36:35;3.65;;;1.77;;
28774;SDS011;15926;51.348;6.596;2023-08-06T17:39:01;2.53;;;1.50;;
28774;SDS011;15926;51.348;6.596;2023-08-06T17:41:27;2.08;;;1.88;;
28774;SDS011;15926;51.348;6.596;2023-08-06T17:43:53;1.42;;;1.17;;
28774;SDS011;15926;51.348;6.596;2023-08-06T17:46:19;2.95;;;1.10;;
28774;SDS011;15926;51.348;6.596;2023-08-06T17:48:45;2.15;;;1.10;;
28774;SDS011;15926;51.348;6.596;2023-08-06T17:51:11;2.75;;;0.70;;
28774;SDS011;15926;51.348;6.596;2023-08-06T17:53:37;4.93;;;1.08;;
28774;SDS011;15926;51.348;6.596;2023-08-06T17:56:03;2.33;;;0.90;;
28774;SDS011;15926;51.348;6.596;2023-08-06T17:58:29;2.30;;;0.80;;
28774;SDS011;15926;51.348;6.596;2023-08-06T18:00:55;4.35;;;0.85;;
28774;SDS011;15926;51.348;6.596;2023-08-06T18:03:21;1.73;;;0.80;;
28774;SDS011;15926;51.348;6.596;2023-08-06T18:05:53;4.28;;;0.77;;
28774;SDS011;15926;51.348;6.596;2023-08-06T18:08:19;6.60;;;0.80;;
28774;SDS011;15926;51.348;6.596;2023-08-06T18:10:45;2.58;;;0.80;;
28774;SDS011;15926;51.348;6.596;2023-08-06T18:13:12;3.80;;;1.10;;
28774;SDS011;15926;51.348;6.596;2023-08-06T18:15:38;3.08;;;1.00;;
28774;SDS011;15926;51.348;6.596;2023-08-06T18:18:04;4.45;;;1.20;;
28774;SDS011;15926;51.348;6.596;2023-08-06T18:20:30;6.82;;;1.15;;
28774;SDS011;15926;51.348;6.596;2023-08-06T18:22:56;1.95;;;0.93;;
28774;SDS011;15926;51.348;6.596;2023-08-06T18:25:22;2.38;;;1.17;;
28774;SDS011;15926;51.348;6.596;2023-08-06T18:27:48;7.65;;;1.10;;
28774;SDS011;15926;51.348;6.596;2023-08-06T18:30:14;3.50;;;1.13;;
28774;SDS011;15926;51.348;6.596;2023-08-06T18:32:40;4.57;;;1.33;;
28774;SDS011;15926;51.348;6.596;2023-08-06T18:35:07;3.25;;;1.20;;
28774;SDS011;15926;51.348;6.596;2023-08-06T18:37:36;5.78;;;1.52;;
28774;SDS011;15926;51.348;6.596;2023-08-06T18:40:04;6.32;;;1.15;;
28774;SDS011;15926;51.348;6.596;2023-08-06T18:42:31;3.85;;;1.20;;
28774;SDS011;15926;51.348;6.596;2023-08-06T18:44:57;5.35;;;1.20;;
28774;SDS011;15926;51.348;6.596;2023-08-06T18:47:29;2.97;;;0.90;;
28774;SDS011;15926;51.348;6.596;2023-08-06T18:49:55;2.72;;;1.05;;